Time;durP1;ratioP1;P1;durP2;ratioP2;P2;SDS_P1;SDS_P2;PMS_P1;PMS_P2;Temp;Humidity;BMP_temperature;BMP_pressure;BME280_temperature;BME280_humidity;BME280_pressure;Samples;Min_cycle;Max_cycle;Signal;HPM_P1;HPM_P2
2023/07/16 00:02:05;;;;;;;5.05;4.55;;;;;;;;;;5034103;28;20022;-56
2023/07/16 00:04:31;;;;;;;4.50;4.07;;;;;;;;;;5016615;28;20457;-56
2023/07/16 00:06:59;;;;;;;4.13;3.83;;;;;;;;;;5034079;28;20104;-56
2023/07/16 00:09:24;;;;;;;4.20;3.83;;;;;;;;;;5033849;28;20022;-56
2023/07/16 00:11:50;;;;;;;4.97;4.05;;;;;;;;;;5033767;28;20384;-56
2023/07/16 00:14:15;;;;;;;4.45;4.15;;;;;;;;;;5033585;28;20029;-56
2023/07/16 00:16:40;;;;;;;5.00;4.43;;;;;;;;;;5033682;28;20493;-62
2023/07/16 00:19:06;;;;;;;4.82;4.25;;;;;;;;;;5033732;28;20080;-62
2023/07/16 00:21:31;;;;;;;4.78;4.38;;;;;;;;;;5016356;28;20034;-62
2023/07/16 00:23:56;;;;;;;4.03;3.72;;;;;;;;;;5015871;28;20036;-62
2023/07/16 00:26:22;;;;;;;4.22;3.85;;;;;;;;;;5015811;28;20128;-62
2023/07/16 00:28:47;;;;;;;4.50;3.92;;;;;;;;;;5033619;28;20104;-62
2023/07/16 00:31:12;;;;;;;4.15;3.85;;;;;;;;;;5033902;28;20461;-62
2023/07/16 00:33:38;;;;;;;4.80;4.50;;;;;;;;;;5033662;28;20036;-62
2023/07/16 00:36:04;;;;;;;4.85;4.45;;;;;;;;;;5014575;28;20040;-62
2023/07/16 00:38:29;;;;;;;4.35;4.03;;;;;;;;;;5033927;28;20478;-62
2023/07/16 00:40:55;;;;;;;4.38;4.00;;;;;;;;;;5016408;28;20115;-62
2023/07/16 00:43:20;;;;;;;4.03;3.72;;;;;;;;;;5017592;28;20064;-62
2023/07/16 00:45:46;;;;;;;4.45;4.15;;;;;;;;;;5037702;28;20030;-62
2023/07/16 00:48:12;;;;;;;4.20;3.80;;;;;;;;;;5020160;28;20045;-62
2023/07/16 00:50:39;;;;;;;4.00;3.70;;;;;;;;;;5020790;28;20464;-62
2023/07/16 00:53:08;;;;;;;4.38;3.97;;;;;;;;;;5019624;28;20032;-62
2023/07/16 00:55:35;;;;;;;4.22;3.92;;;;;;;;;;5019489;28;20033;-62
2023/07/16 00:58:04;;;;;;;3.85;3.55;;;;;;;;;;5037327;28;20045;-62
2023/07/16 01:00:30;;;;;;;4.80;4.50;;;;;;;;;;5037826;28;20455;-62
2023/07/16 01:02:55;;;;;;;5.07;4.63;;;;;;;;;;5019520;28;20068;-62
2023/07/16 01:05:24;;;;;;;4.57;4.18;;;;;;;;;;5037418;28;20100;-62
2023/07/16 01:07:54;;;;;;;4.47;4.18;;;;;;;;;;5002897;28;20040;-62
2023/07/16 01:10:20;;;;;;;4.78;4.43;;;;;;;;;;5019987;28;20036;-62
2023/07/16 01:12:45;;;;;;;4.00;3.80;;;;;;;;;;5037266;28;20037;-62
2023/07/16 01:15:10;;;;;;;4.22;3.92;;;;;;;;;;5036107;28;20045;-62
2023/07/16 01:17:38;;;;;;;4.47;4.03;;;;;;;;;;5037316;28;20440;-62
2023/07/16 01:20:05;;;;;;;5.10;4.60;;;;;;;;;;5037044;28;20033;-62
2023/07/16 01:22:30;;;;;;;4.65;4.25;;;;;;;;;;5019566;28;20038;-62
2023/07/16 01:25:00;;;;;;;4.60;4.20;;;;;;;;;;5037103;28;20091;-62
2023/07/16 01:27:26;;;;;;;;;;;;;;;;;;5037561;28;20288;-62
2023/07/16 01:29:54;;;;;;;4.70;3.85;;;;;;;;;;5037190;28;20380;-62
2023/07/16 01:32:20;;;;;;;4.10;3.78;;;;;;;;;;5036912;28;20018;-62
2023/07/16 01:34:46;;;;;;;4.28;3.97;;;;;;;;;;5037096;28;20022;-62
2023/07/16 01:37:11;;;;;;;4.32;3.92;;;;;;;;;;5037287;28;20096;-62
2023/07/16 01:39:37;;;;;;;4.35;4.05;;;;;;;;;;5036690;28;20033;-62
2023/07/16 01:42:02;;;;;;;6.30;4.40;;;;;;;;;;5036327;28;20037;-62
2023/07/16 01:44:28;;;;;;;4.65;4.30;;;;;;;;;;5037742;28;20036;-63
2023/07/16 01:47:05;;;;;;;4.40;4.10;;;;;;;;;;5036739;28;20384;-63
2023/07/16 01:49:30;;;;;;;5.97;5.50;;;;;;;;;;5019333;28;20032;-63
2023/07/16 01:51:56;;;;;;;16.40;14.77;;;;;;;;;;5036565;28;20021;-62
2023/07/16 01:54:21;;;;;;;35.20;31.98;;;;;;;;;;5034689;28;20028;-63
2023/07/16 01:56:46;;;;;;;28.83;26.13;;;;;;;;;;5019112;28;20033;-62
2023/07/16 01:59:12;;;;;;;37.28;33.40;;;;;;;;;;5019095;28;20125;-62
2023/07/16 02:01:37;;;;;;;16.85;15.05;;;;;;;;;;5018680;28;20036;-63
2023/07/16 02:04:02;;;;;;;15.07;13.13;;;;;;;;;;5002665;28;20021;-63
2023/07/16 02:06:28;;;;;;;13.95;11.60;;;;;;;;;;5036435;28;20487;-62
2023/07/16 02:08:53;;;;;;;12.07;10.75;;;;;;;;;;5018911;28;20116;-62
2023/07/16 02:11:18;;;;;;;7.90;7.25;;;;;;;;;;5018129;28;20468;-62
2023/07/16 02:13:47;;;;;;;6.43;5.97;;;;;;;;;;5018554;28;20357;-62
2023/07/16 02:16:12;;;;;;;7.50;6.68;;;;;;;;;;5018017;28;20024;-61
2023/07/16 02:18:39;;;;;;;6.07;5.38;;;;;;;;;;5018465;28;20041;-61
2023/07/16 02:21:04;;;;;;;6.68;5.95;;;;;;;;;;5017954;28;20021;-62
2023/07/16 02:23:31;;;;;;;6.07;5.50;;;;;;;;;;5017996;28;20391;-62
2023/07/16 02:25:56;;;;;;;5.70;4.82;;;;;;;;;;5035438;28;20049;-61
2023/07/16 02:28:22;;;;;;;5.20;4.80;;;;;;;;;;5036159;28;20036;-61
2023/07/16 02:30:48;;;;;;;7.20;5.18;;;;;;;;;;5017974;28;20113;-62
2023/07/16 02:33:13;;;;;;;4.72;4.43;;;;;;;;;;5035894;28;20049;-62
2023/07/16 02:35:39;;;;;;;4.53;4.13;;;;;;;;;;5035799;28;20460;-62
2023/07/16 02:38:04;;;;;;;4.55;4.15;;;;;;;;;;5035573;28;20052;-62
2023/07/16 02:40:30;;;;;;;4.97;4.57;;;;;;;;;;5017583;28;20021;-62
2023/07/16 02:42:55;;;;;;;5.55;4.20;;;;;;;;;;5017536;28;20033;-62
2023/07/16 02:45:20;;;;;;;4.20;3.90;;;;;;;;;;5035726;28;20026;-62
2023/07/16 02:47:46;;;;;;;4.63;4.28;;;;;;;;;;5017867;28;20029;-61
2023/07/16 02:50:11;;;;;;;5.18;4.10;;;;;;;;;;5035480;28;20083;-61
2023/07/16 02:52:36;;;;;;;4.25;3.95;;;;;;;;;;5035642;28;20030;-62
2023/07/16 02:55:02;;;;;;;4.43;3.70;;;;;;;;;;5017445;28;20033;-62
2023/07/16 02:57:28;;;;;;;3.90;3.70;;;;;;;;;;5035280;28;20029;-61
2023/07/16 02:59:54;;;;;;;4.13;3.83;;;;;;;;;;5035000;28;20017;-62
2023/07/16 03:02:19;;;;;;;4.60;4.20;;;;;;;;;;5017608;28;20029;-62
2023/07/16 03:04:45;;;;;;;4.22;3.88;;;;;;;;;;5017280;28;20120;-61
2023/07/16 03:07:12;;;;;;;4.25;3.70;;;;;;;;;;5016600;28;20037;-61
2023/07/16 03:09:37;;;;;;;4.10;3.80;;;;;;;;;;5035123;28;20033;-61
2023/07/16 03:12:04;;;;;;;4.32;3.97;;;;;;;;;;5035061;28;20087;-62
2023/07/16 03:14:29;;;;;;;3.97;3.67;;;;;;;;;;5016940;28;20025;-61
2023/07/16 03:16:55;;;;;;;4.57;4.28;;;;;;;;;;5016917;28;20030;-61
2023/07/16 03:19:20;;;;;;;4.20;3.90;;;;;;;;;;5034703;28;20025;-61
2023/07/16 03:21:46;;;;;;;4.47;4.07;;;;;;;;;;5034722;28;20117;-61
2023/07/16 03:24:12;;;;;;;4.97;3.95;;;;;;;;;;5016852;28;20030;-61
2023/07/16 03:26:37;;;;;;;4.63;4.30;;;;;;;;;;5016986;28;20057;-61
2023/07/16 03:29:02;;;;;;;3.83;3.55;;;;;;;;;;5016700;28;20053;-61
2023/07/16 03:31:28;;;;;;;4.50;4.10;;;;;;;;;;5016636;28;20048;-61
2023/07/16 03:33:53;;;;;;;4.25;3.95;;;;;;;;;;5017087;28;20037;-61
2023/07/16 03:36:19;;;;;;;4.15;3.85;;;;;;;;;;5016851;28;20380;-61
2023/07/16 03:38:44;;;;;;;4.20;3.72;;;;;;;;;;5034547;28;20121;-61
2023/07/16 03:41:10;;;;;;;4.13;3.65;;;;;;;;;;5016486;28;20108;-61
2023/07/16 03:43:36;;;;;;;4.30;3.90;;;;;;;;;;5016533;28;20492;-61
2023/07/16 03:46:14;;;;;;;3.97;3.67;;;;;;;;;;5034250;28;20425;-61
2023/07/16 03:48:40;;;;;;;5.32;4.25;;;;;;;;;;5016330;28;20115;-61
2023/07/16 03:51:06;;;;;;;4.05;3.63;;;;;;;;;;5016300;28;20148;-61
2023/07/16 03:53:31;;;;;;;4.18;3.97;;;;;;;;;;5034361;28;20159;-61
2023/07/16 03:55:57;;;;;;;4.32;3.65;;;;;;;;;;5033895;28;20101;-61
2023/07/16 03:58:23;;;;;;;4.03;3.72;;;;;;;;;;5034574;28;20120;-61
2023/07/16 04:00:48;;;;;;;4.07;3.67;;;;;;;;;;5016881;28;20075;-61
2023/07/16 04:03:13;;;;;;;4.30;3.90;;;;;;;;;;5034227;28;20033;-61
2023/07/16 04:05:39;;;;;;;3.75;3.47;;;;;;;;;;5034110;28;20025;-61
2023/07/16 04:08:08;;;;;;;3.60;3.35;;;;;;;;;;5016017;28;20033;-62
2023/07/16 04:10:33;;;;;;;3.95;3.65;;;;;;;;;;5033857;28;20441;-62
2023/07/16 04:12:59;;;;;;;3.65;3.45;;;;;;;;;;5034257;28;20052;-62
2023/07/16 04:15:24;;;;;;;4.13;3.90;;;;;;;;;;5033925;28;20379;-62
2023/07/16 04:17:49;;;;;;;3.83;3.53;;;;;;;;;;5033329;28;20033;-62
2023/07/16 04:20:15;;;;;;;3.88;3.67;;;;;;;;;;5034053;28;20033;-62
2023/07/16 04:22:40;;;;;;;4.03;3.50;;;;;;;;;;5033904;28;20094;-61
2023/07/16 04:25:06;;;;;;;3.58;3.28;;;;;;;;;;5033723;28;20091;-62
2023/07/16 04:27:32;;;;;;;3.58;3.33;;;;;;;;;;5033641;28;20078;-62
2023/07/16 04:29:57;;;;;;;3.40;3.08;;;;;;;;;;5033783;28;20105;-61
2023/07/16 04:32:23;;;;;;;3.47;3.28;;;;;;;;;;5033973;28;20457;-60
2023/07/16 04:34:48;;;;;;;3.72;3.53;;;;;;;;;;5033757;28;20036;-60
2023/07/16 04:37:13;;;;;;;4.22;3.50;;;;;;;;;;5015948;28;20034;-62
2023/07/16 04:39:38;;;;;;;3.85;3.60;;;;;;;;;;5033831;28;20029;-62
2023/07/16 04:42:04;;;;;;;4.35;3.95;;;;;;;;;;5033440;28;20464;-62
2023/07/16 04:44:29;;;;;;;3.95;3.55;;;;;;;;;;5033957;28;20021;-56
2023/07/16 04:46:54;;;;;;;4.10;3.67;;;;;;;;;;5033611;28;20444;-56
2023/07/16 04:49:20;;;;;;;4.00;3.70;;;;;;;;;;5033897;28;20026;-56
2023/07/16 04:51:46;;;;;;;3.70;3.50;;;;;;;;;;5033420;28;20022;-56
2023/07/16 04:54:12;;;;;;;3.80;3.60;;;;;;;;;;5033527;28;20030;-56
2023/07/16 04:56:37;;;;;;;5.60;4.18;;;;;;;;;;5033544;28;20038;-56
2023/07/16 04:59:02;;;;;;;4.20;3.90;;;;;;;;;;5033565;28;20025;-57
2023/07/16 05:01:27;;;;;;;3.58;3.38;;;;;;;;;;5033528;28;20465;-56
2023/07/16 05:03:53;;;;;;;4.43;4.13;;;;;;;;;;5033519;28;20389;-56
2023/07/16 05:06:18;;;;;;;4.05;3.70;;;;;;;;;;5033093;28;20036;-56
2023/07/16 05:08:43;;;;;;;4.03;3.55;;;;;;;;;;5033255;28;20029;-61
2023/07/16 05:11:09;;;;;;;3.90;3.33;;;;;;;;;;5033164;28;20040;-56
2023/07/16 05:13:34;;;;;;;4.05;3.75;;;;;;;;;;5033191;28;20033;-56
2023/07/16 05:15:59;;;;;;;4.53;3.63;;;;;;;;;;5033270;28;20025;-56
2023/07/16 05:18:25;;;;;;;3.97;3.72;;;;;;;;;;5033187;28;20029;-56
2023/07/16 05:20:50;;;;;;;4.68;3.53;;;;;;;;;;5033723;28;20026;-56
2023/07/16 05:23:15;;;;;;;4.00;3.80;;;;;;;;;;5033338;28;20017;-56
2023/07/16 05:25:50;;;;;;;5.70;3.88;;;;;;;;;;5033584;28;20129;-56
2023/07/16 05:28:16;;;;;;;3.90;3.63;;;;;;;;;;5033338;28;20461;-56
2023/07/16 05:30:41;;;;;;;3.67;3.47;;;;;;;;;;5036509;28;20032;-56
2023/07/16 05:33:06;;;;;;;3.63;3.33;;;;;;;;;;5019150;28;20037;-56
2023/07/16 05:35:32;;;;;;;3.75;3.45;;;;;;;;;;5036668;28;20028;-61
2023/07/16 05:37:57;;;;;;;3.97;3.67;;;;;;;;;;5036752;28;20045;-61
2023/07/16 05:40:22;;;;;;;3.97;3.72;;;;;;;;;;5036733;28;20026;-62
2023/07/16 05:42:48;;;;;;;4.45;4.22;;;;;;;;;;5036589;28;20034;-62
2023/07/16 05:45:13;;;;;;;4.70;4.30;;;;;;;;;;5036964;28;20029;-62
2023/07/16 05:47:38;;;;;;;3.97;3.67;;;;;;;;;;5036508;28;20201;-62
2023/07/16 05:50:04;;;;;;;4.63;4.20;;;;;;;;;;5036593;28;20021;-62
2023/07/16 05:52:29;;;;;;;5.72;4.10;;;;;;;;;;5019038;28;20016;-62
2023/07/16 05:54:55;;;;;;;5.32;3.90;;;;;;;;;;5036479;28;20040;-62
2023/07/16 05:57:20;;;;;;;4.32;4.00;;;;;;;;;;5036936;28;20033;-62
2023/07/16 05:59:45;;;;;;;5.82;3.90;;;;;;;;;;5037066;28;20025;-61
2023/07/16 06:02:11;;;;;;;4.95;4.10;;;;;;;;;;5036131;28;20079;-56
2023/07/16 06:04:36;;;;;;;4.90;4.50;;;;;;;;;;5017516;28;20033;-62
2023/07/16 06:07:02;;;;;;;5.03;4.53;;;;;;;;;;5036118;28;20182;-61
2023/07/16 06:09:27;;;;;;;4.65;4.03;;;;;;;;;;5018590;28;20075;-62
2023/07/16 06:11:53;;;;;;;5.68;4.63;;;;;;;;;;5036242;28;20100;-56
2023/07/16 06:14:18;;;;;;;4.80;4.22;;;;;;;;;;5018139;28;20033;-56
2023/07/16 06:16:43;;;;;;;5.88;5.22;;;;;;;;;;5036014;28;20036;-62
2023/07/16 06:19:09;;;;;;;5.22;4.65;;;;;;;;;;5018657;28;20083;-62
2023/07/16 06:21:34;;;;;;;5.88;4.47;;;;;;;;;;5036330;28;20064;-62
2023/07/16 06:23:59;;;;;;;5.03;4.22;;;;;;;;;;5036061;28;20017;-62
2023/07/16 06:26:25;;;;;;;5.45;5.00;;;;;;;;;;5035563;28;20488;-62
2023/07/16 06:28:50;;;;;;;5.28;4.90;;;;;;;;;;5035481;28;20033;-56
2023/07/16 06:31:18;;;;;;;5.90;5.40;;;;;;;;;;5035241;28;20057;-62
2023/07/16 06:33:46;;;;;;;6.07;5.57;;;;;;;;;;5034675;28;20029;-63
2023/07/16 06:36:11;;;;;;;5.70;4.82;;;;;;;;;;5034870;28;20452;-63
2023/07/16 06:38:37;;;;;;;5.18;4.78;;;;;;;;;;5034876;28;20064;-63
2023/07/16 06:41:02;;;;;;;5.28;4.85;;;;;;;;;;5034102;28;20116;-63
2023/07/16 06:43:27;;;;;;;4.78;4.38;;;;;;;;;;5035038;28;20083;-64
2023/07/16 06:45:53;;;;;;;4.80;4.40;;;;;;;;;;5034965;28;20381;-63
2023/07/16 06:48:18;;;;;;;6.47;4.60;;;;;;;;;;5016998;28;20064;-63
2023/07/16 06:50:43;;;;;;;5.20;4.80;;;;;;;;;;5034962;28;20027;-63
2023/07/16 06:53:09;;;;;;;5.78;4.80;;;;;;;;;;5033525;28;20112;-63
2023/07/16 06:55:34;;;;;;;4.40;3.75;;;;;;;;;;5034877;28;20424;-63
2023/07/16 06:58:00;;;;;;;4.97;4.47;;;;;;;;;;5034727;28;20120;-63
2023/07/16 07:00:25;;;;;;;5.07;4.70;;;;;;;;;;5034593;28;20104;-63
2023/07/16 07:02:51;;;;;;;5.55;4.30;;;;;;;;;;5035048;28;20030;-63
2023/07/16 07:05:16;;;;;;;5.63;5.13;;;;;;;;;;5034587;28;20387;-63
2023/07/16 07:07:43;;;;;;;5.88;4.63;;;;;;;;;;5034394;28;20176;-63
2023/07/16 07:10:08;;;;;;;7.10;4.78;;;;;;;;;;5034243;28;20026;-62
2023/07/16 07:12:37;;;;;;;6.45;5.25;;;;;;;;;;5016218;28;20465;-63
2023/07/16 07:15:03;;;;;;;6.32;4.93;;;;;;;;;;5034165;28;20688;-63
2023/07/16 07:17:28;;;;;;;7.22;5.57;;;;;;;;;;5034451;28;20026;-63
2023/07/16 07:19:53;;;;;;;8.90;5.18;;;;;;;;;;5033788;28;20037;-63
2023/07/16 07:22:19;;;;;;;6.93;5.57;;;;;;;;;;5033842;28;20521;-63
2023/07/16 07:24:44;;;;;;;6.93;5.03;;;;;;;;;;5015743;28;20099;-63
2023/07/16 07:27:09;;;;;;;5.22;4.25;;;;;;;;;;5033425;28;20067;-63
2023/07/16 07:29:35;;;;;;;5.18;4.72;;;;;;;;;;5033728;28;20172;-63
2023/07/16 07:32:00;;;;;;;5.18;4.18;;;;;;;;;;5033779;28;20057;-63
2023/07/16 07:34:25;;;;;;;4.45;4.13;;;;;;;;;;5034039;28;20448;-63
2023/07/16 07:36:50;;;;;;;6.47;4.65;;;;;;;;;;5033817;28;20025;-64
2023/07/16 07:39:16;;;;;;;4.70;4.38;;;;;;;;;;5014854;28;20383;-57
2023/07/16 07:41:42;;;;;;;6.63;5.18;;;;;;;;;;5032952;28;20036;-57
2023/07/16 07:44:07;;;;;;;10.13;7.10;;;;;;;;;;5033929;28;20022;-57
2023/07/16 07:46:32;;;;;;;10.55;6.88;;;;;;;;;;5033879;28;20048;-57
2023/07/16 07:48:57;;;;;;;12.77;7.53;;;;;;;;;;5033921;28;20341;-57
2023/07/16 07:51:24;;;;;;;14.45;7.90;;;;;;;;;;5015812;28;20105;-58
2023/07/16 07:53:49;;;;;;;12.18;6.68;;;;;;;;;;5033819;28;20392;-55
2023/07/16 07:56:14;;;;;;;8.63;6.22;;;;;;;;;;5033522;28;20041;-55
2023/07/16 07:58:40;;;;;;;10.27;5.68;;;;;;;;;;5033557;28;20025;-55
2023/07/16 08:01:05;;;;;;;6.03;5.50;;;;;;;;;;5015971;28;20132;-55
2023/07/16 08:03:31;;;;;;;5.40;4.90;;;;;;;;;;5033443;28;20037;-55
2023/07/16 08:05:56;;;;;;;6.15;5.15;;;;;;;;;;5033150;28;20060;-55
2023/07/16 08:08:22;;;;;;;5.03;4.63;;;;;;;;;;5033270;28;20034;-55
2023/07/16 08:10:47;;;;;;;5.30;4.88;;;;;;;;;;5015545;28;20025;-56
2023/07/16 08:13:12;;;;;;;6.75;5.97;;;;;;;;;;5033312;28;20029;-55
2023/07/16 08:15:38;;;;;;;7.78;5.78;;;;;;;;;;5015724;28;20033;-56
2023/07/16 08:18:03;;;;;;;6.93;5.70;;;;;;;;;;5033217;28;20018;-56
2023/07/16 08:20:28;;;;;;;8.95;6.47;;;;;;;;;;5032905;28;20037;-55
2023/07/16 08:22:54;;;;;;;8.63;6.10;;;;;;;;;;5015358;28;20069;-55
2023/07/16 08:25:19;;;;;;;6.38;5.78;;;;;;;;;;5032754;28;20053;-56
2023/07/16 08:27:45;;;;;;;6.00;5.50;;;;;;;;;;5033237;28;20075;-56
2023/07/16 08:30:11;;;;;;;6.22;5.63;;;;;;;;;;5032826;28;20018;-56
2023/07/16 08:32:36;;;;;;;8.95;6.07;;;;;;;;;;5033320;28;20511;-55
2023/07/16 08:35:02;;;;;;;6.45;5.85;;;;;;;;;;5033142;28;20092;-56
2023/07/16 08:37:27;;;;;;;6.65;6.05;;;;;;;;;;5015322;28;20396;-56
2023/07/16 08:39:56;;;;;;;7.07;6.43;;;;;;;;;;5015521;28;20036;-56
2023/07/16 08:42:21;;;;;;;7.32;6.38;;;;;;;;;;4999026;28;20026;-56
2023/07/16 08:44:50;;;;;;;6.93;6.28;;;;;;;;;;5015620;28;20045;-56
2023/07/16 08:47:16;;;;;;;6.50;6.05;;;;;;;;;;5033116;28;20550;-56
2023/07/16 08:49:41;;;;;;;8.75;6.85;;;;;;;;;;5033177;28;20029;-56
2023/07/16 08:52:07;;;;;;;7.35;6.68;;;;;;;;;;5033035;28;20033;-56
2023/07/16 08:54:32;;;;;;;6.95;6.45;;;;;;;;;;5033107;28;20017;-56
2023/07/16 08:56:59;;;;;;;6.95;6.35;;;;;;;;;;5033138;28;20353;-56
2023/07/16 08:59:24;;;;;;;12.50;7.05;;;;;;;;;;5033035;28;20029;-56
2023/07/16 09:01:50;;;;;;;7.43;6.82;;;;;;;;;;5032825;28;20018;-56
2023/07/16 09:04:16;;;;;;;9.82;8.27;;;;;;;;;;5034384;28;20083;-56
2023/07/16 09:06:41;;;;;;;8.13;7.35;;;;;;;;;;5037013;28;20045;-56
2023/07/16 09:09:06;;;;;;;10.18;9.20;;;;;;;;;;5036669;28;20473;-56
2023/07/16 09:11:33;;;;;;;12.00;10.63;;;;;;;;;;5036885;28;20025;-56
2023/07/16 09:14:01;;;;;;;9.10;8.15;;;;;;;;;;5036502;28;20036;-56
2023/07/16 09:16:26;;;;;;;10.30;9.25;;;;;;;;;;5037257;28;20496;-56
2023/07/16 09:18:52;;;;;;;12.25;9.07;;;;;;;;;;5019447;28;20068;-56
2023/07/16 09:21:17;;;;;;;9.55;8.65;;;;;;;;;;5019104;28;20079;-56
2023/07/16 09:23:42;;;;;;;9.10;8.35;;;;;;;;;;5037206;28;20052;-56
2023/07/16 09:26:08;;;;;;;10.13;9.10;;;;;;;;;;4990118;28;20051;-56
2023/07/16 09:28:33;;;;;;;10.75;9.65;;;;;;;;;;4977889;28;20440;-56
2023/07/16 09:31:06;;;;;;;10.35;9.30;;;;;;;;;;4977966;28;20026;-56
2023/07/16 09:33:31;;;;;;;10.55;9.68;;;;;;;;;;4977875;28;20125;-56
2023/07/16 09:35:57;;;;;;;10.13;9.23;;;;;;;;;;4977415;28;20087;-56
2023/07/16 09:38:24;;;;;;;10.13;9.30;;;;;;;;;;4976096;28;20031;-56
2023/07/16 09:40:51;;;;;;;10.25;9.02;;;;;;;;;;4977210;28;20089;-56
2023/07/16 09:43:18;;;;;;;9.70;8.88;;;;;;;;;;4977933;28;20034;-56
2023/07/16 09:45:44;;;;;;;9.98;9.10;;;;;;;;;;4960513;28;20129;-56
2023/07/16 09:48:10;;;;;;;9.88;9.15;;;;;;;;;;4960229;28;20054;-56
2023/07/16 09:50:38;;;;;;;11.15;9.95;;;;;;;;;;4992473;28;20023;-56
2023/07/16 09:53:04;;;;;;;12.90;11.63;;;;;;;;;;4959346;28;20417;-56
2023/07/16 09:55:34;;;;;;;11.68;10.68;;;;;;;;;;4942308;28;20477;-56
2023/07/16 09:58:00;;;;;;;9.98;9.30;;;;;;;;;;4975483;28;20030;-56
2023/07/16 10:00:26;;;;;;;10.55;9.48;;;;;;;;;;4990304;28;20031;-56
2023/07/16 10:02:52;;;;;;;10.60;9.70;;;;;;;;;;4975518;28;20026;-56
2023/07/16 10:05:18;;;;;;;11.68;10.50;;;;;;;;;;4975276;28;20085;-56
2023/07/16 10:07:54;;;;;;;11.05;10.05;;;;;;;;;;4957952;28;20122;-56
2023/07/16 10:10:21;;;;;;;11.07;10.18;;;;;;;;;;4975811;28;20065;-56
2023/07/16 10:12:56;;;;;;;10.85;9.95;;;;;;;;;;4976949;28;20031;-56
2023/07/16 10:15:25;;;;;;;9.82;9.13;;;;;;;;;;4977329;28;20027;-56
2023/07/16 10:17:51;;;;;;;9.38;8.57;;;;;;;;;;4977083;28;20114;-56
2023/07/16 10:20:16;;;;;;;9.10;8.27;;;;;;;;;;4959760;28;20031;-56
2023/07/16 10:22:47;;;;;;;8.52;7.85;;;;;;;;;;4976962;28;20023;-56
2023/07/16 10:25:19;;;;;;;10.02;9.20;;;;;;;;;;4976739;28;20065;-56
2023/07/16 10:27:47;;;;;;;9.93;8.13;;;;;;;;;;4991766;28;20443;-56
2023/07/16 10:30:13;;;;;;;8.88;8.10;;;;;;;;;;4977134;28;20035;-56
2023/07/16 10:32:38;;;;;;;8.15;7.28;;;;;;;;;;4977334;28;20038;-56
2023/07/16 10:35:05;;;;;;;7.60;7.00;;;;;;;;;;4976997;28;20064;-56
2023/07/16 10:37:30;;;;;;;7.60;7.10;;;;;;;;;;4976965;28;20022;-56
2023/07/16 10:39:56;;;;;;;8.95;8.23;;;;;;;;;;4991555;28;20466;-56
2023/07/16 10:42:22;;;;;;;11.52;8.70;;;;;;;;;;4991567;28;20503;-56
2023/07/16 10:44:49;;;;;;;9.23;8.52;;;;;;;;;;4976575;28;20470;-56
2023/07/16 10:47:22;;;;;;;9.93;9.10;;;;;;;;;;4976706;28;20026;-56
2023/07/16 10:49:47;;;;;;;9.77;8.88;;;;;;;;;;4976483;28;20031;-56
2023/07/16 10:52:12;;;;;;;9.57;8.70;;;;;;;;;;4976702;28;20509;-56
2023/07/16 10:54:39;;;;;;;9.85;8.63;;;;;;;;;;4976341;28;20546;-56
2023/07/16 10:57:05;;;;;;;9.55;8.85;;;;;;;;;;4959007;28;20430;-56
2023/07/16 10:59:30;;;;;;;9.32;8.52;;;;;;;;;;4976260;28;20089;-56
2023/07/16 11:01:55;;;;;;;9.05;8.30;;;;;;;;;;4976248;28;20373;-56
2023/07/16 11:04:21;;;;;;;8.52;7.82;;;;;;;;;;4976476;28;20085;-56
2023/07/16 11:06:46;;;;;;;8.95;8.05;;;;;;;;;;4976661;28;20031;-56
2023/07/16 11:09:11;;;;;;;9.48;8.77;;;;;;;;;;4958786;28;20038;-56
2023/07/16 11:11:37;;;;;;;10.88;8.85;;;;;;;;;;4976334;28;20459;-56
2023/07/16 11:14:06;;;;;;;9.32;8.48;;;;;;;;;;4959004;28;20378;-56
2023/07/16 11:16:35;;;;;;;9.07;8.27;;;;;;;;;;4976237;28;20458;-56
2023/07/16 11:19:01;;;;;;;9.52;8.73;;;;;;;;;;4975975;28;20026;-56
2023/07/16 11:21:26;;;;;;;7.45;6.72;;;;;;;;;;4975901;28;20046;-56
2023/07/16 11:23:52;;;;;;;7.93;7.15;;;;;;;;;;4976341;28;20047;-56
2023/07/16 11:26:17;;;;;;;8.30;7.38;;;;;;;;;;4975231;28;20059;-56
2023/07/16 11:28:42;;;;;;;7.95;7.22;;;;;;;;;;4958277;28;20035;-56
2023/07/16 11:31:14;;;;;;;7.45;6.75;;;;;;;;;;4975708;28;20109;-56
2023/07/16 11:33:45;;;;;;;6.45;5.95;;;;;;;;;;4975953;28;20023;-56
2023/07/16 11:36:11;;;;;;;6.63;6.13;;;;;;;;;;4976410;28;20390;-56
2023/07/16 11:38:37;;;;;;;7.22;6.65;;;;;;;;;;4975566;28;20061;-56
2023/07/16 11:41:02;;;;;;;6.32;5.80;;;;;;;;;;4975554;28;20031;-56
2023/07/16 11:43:28;;;;;;;7.03;6.47;;;;;;;;;;4975472;28;20026;-56
2023/07/16 11:45:53;;;;;;;6.65;6.05;;;;;;;;;;4975954;28;20035;-56
2023/07/16 11:48:18;;;;;;;7.07;6.47;;;;;;;;;;4975346;28;20398;-56
2023/07/16 11:50:45;;;;;;;6.50;5.88;;;;;;;;;;4975299;28;20106;-56
2023/07/16 11:53:10;;;;;;;6.50;5.90;;;;;;;;;;4958344;28;20390;-56
2023/07/16 11:55:36;;;;;;;7.80;6.53;;;;;;;;;;4975271;28;20058;-56
2023/07/16 11:58:02;;;;;;;6.32;5.72;;;;;;;;;;4975829;28;20030;-56
2023/07/16 12:00:28;;;;;;;6.28;5.88;;;;;;;;;;4975185;28;20130;-56
2023/07/16 12:02:53;;;;;;;7.22;6.05;;;;;;;;;;4957885;28;20113;-56
2023/07/16 12:05:21;;;;;;;6.22;5.68;;;;;;;;;;4975401;28;20081;-56
2023/07/16 12:07:46;;;;;;;5.72;5.18;;;;;;;;;;4975251;28;20042;-56
2023/07/16 12:10:11;;;;;;;5.95;5.53;;;;;;;;;;4975081;28;20023;-56
2023/07/16 12:12:37;;;;;;;6.18;5.57;;;;;;;;;;4957737;28;20034;-56
2023/07/16 12:15:07;;;;;;;5.90;5.50;;;;;;;;;;4975026;28;20019;-56
2023/07/16 12:17:32;;;;;;;6.40;5.80;;;;;;;;;;4975516;28;20038;-56
2023/07/16 12:19:58;;;;;;;6.18;5.68;;;;;;;;;;4975007;28;20093;-56
2023/07/16 12:22:23;;;;;;;5.88;5.38;;;;;;;;;;4974956;28;20493;-56
2023/07/16 12:24:49;;;;;;;4.85;4.55;;;;;;;;;;4974701;28;20122;-56
2023/07/16 12:27:15;;;;;;;6.75;6.07;;;;;;;;;;4957845;28;20034;-56
2023/07/16 12:29:40;;;;;;;6.55;5.82;;;;;;;;;;4974853;28;20034;-56
2023/07/16 12:32:06;;;;;;;5.72;5.20;;;;;;;;;;4975127;28;20015;-56
2023/07/16 12:34:31;;;;;;;6.10;5.60;;;;;;;;;;4974811;28;20058;-56
2023/07/16 12:36:56;;;;;;;6.00;5.50;;;;;;;;;;4974790;28;20027;-56
2023/07/16 12:39:22;;;;;;;6.63;5.80;;;;;;;;;;4992358;28;20113;-56
2023/07/16 12:41:49;;;;;;;5.95;5.47;;;;;;;;;;4978722;28;20474;-56
2023/07/16 12:44:14;;;;;;;5.10;4.72;;;;;;;;;;4979069;28;20031;-56
2023/07/16 12:46:39;;;;;;;5.90;5.45;;;;;;;;;;4978708;28;20363;-56
2023/07/16 12:49:05;;;;;;;5.05;4.72;;;;;;;;;;4979115;28;20129;-56
2023/07/16 12:51:30;;;;;;;5.65;5.20;;;;;;;;;;4978900;28;20097;-56
2023/07/16 12:53:55;;;;;;;5.97;5.57;;;;;;;;;;4979107;28;20104;-56
2023/07/16 12:56:21;;;;;;;6.22;5.72;;;;;;;;;;4978558;28;20043;-56
2023/07/16 12:58:47;;;;;;;6.05;5.65;;;;;;;;;;4978499;28;20371;-56
2023/07/16 13:01:12;;;;;;;6.55;6.05;;;;;;;;;;4978500;28;20038;-56
2023/07/16 13:03:38;;;;;;;7.20;6.55;;;;;;;;;;4961376;28;20027;-56
2023/07/16 13:06:04;;;;;;;6.43;5.95;;;;;;;;;;4978633;28;20074;-56
2023/07/16 13:08:29;;;;;;;7.90;7.20;;;;;;;;;;4960784;28;20058;-56
2023/07/16 13:10:55;;;;;;;6.60;6.20;;;;;;;;;;4978322;28;20031;-56
2023/07/16 13:13:20;;;;;;;6.10;5.70;;;;;;;;;;4978261;28;20031;-56
2023/07/16 13:15:45;;;;;;;7.15;6.53;;;;;;;;;;4978183;28;20026;-56
2023/07/16 13:18:11;;;;;;;6.43;5.90;;;;;;;;;;4978478;28;20046;-56
2023/07/16 13:20:37;;;;;;;6.70;6.10;;;;;;;;;;4978096;28;20030;-56
2023/07/16 13:23:03;;;;;;;6.60;5.70;;;;;;;;;;4978073;28;20030;-56
2023/07/16 13:25:29;;;;;;;6.63;5.57;;;;;;;;;;4977821;28;20050;-56
2023/07/16 13:27:55;;;;;;;7.85;6.38;;;;;;;;;;4978176;28;20043;-56
2023/07/16 13:30:20;;;;;;;5.95;5.43;;;;;;;;;;4977967;28;20034;-56
2023/07/16 13:32:46;;;;;;;6.50;6.00;;;;;;;;;;4960487;28;20042;-56
2023/07/16 13:35:11;;;;;;;6.97;6.38;;;;;;;;;;4977876;28;20030;-56
2023/07/16 13:37:36;;;;;;;7.00;6.30;;;;;;;;;;4978103;28;20109;-56
2023/07/16 13:40:02;;;;;;;7.93;7.32;;;;;;;;;;4977781;28;20109;-56
2023/07/16 13:42:27;;;;;;;7.35;6.85;;;;;;;;;;4977726;28;20105;-56
2023/07/16 13:44:52;;;;;;;8.68;6.80;;;;;;;;;;4960476;28;20478;-56
2023/07/16 13:47:18;;;;;;;7.72;7.10;;;;;;;;;;4978368;28;20031;-54
2023/07/16 13:49:43;;;;;;;7.68;6.90;;;;;;;;;;4977451;28;20027;-56
2023/07/16 13:52:08;;;;;;;7.05;6.47;;;;;;;;;;4977535;28;20058;-56
2023/07/16 13:54:33;;;;;;;7.30;6.65;;;;;;;;;;4977490;28;20081;-56
2023/07/16 13:57:00;;;;;;;7.30;6.70;;;;;;;;;;4977462;28;20037;-56
2023/07/16 13:59:25;;;;;;;7.57;6.97;;;;;;;;;;4977679;28;20122;-56
2023/07/16 14:01:58;;;;;;;7.47;6.88;;;;;;;;;;4977687;28;20101;-56
2023/07/16 14:04:24;;;;;;;7.88;6.60;;;;;;;;;;4977328;28;20034;-56
2023/07/16 14:06:49;;;;;;;7.72;7.03;;;;;;;;;;4977268;28;20023;-56
2023/07/16 14:09:14;;;;;;;9.35;6.78;;;;;;;;;;4977455;28;20050;-56
2023/07/16 14:11:39;;;;;;;9.48;6.95;;;;;;;;;;4977172;28;20035;-56
2023/07/16 14:14:05;;;;;;;7.57;6.80;;;;;;;;;;4977697;28;20038;-56
2023/07/16 14:16:31;;;;;;;7.90;7.13;;;;;;;;;;4977092;28;20031;-56
2023/07/16 14:18:56;;;;;;;7.30;6.70;;;;;;;;;;4959924;28;20042;-56
2023/07/16 14:21:21;;;;;;;7.68;6.70;;;;;;;;;;4977267;28;20082;-56
2023/07/16 14:23:47;;;;;;;7.90;7.10;;;;;;;;;;4976927;28;20493;-56
2023/07/16 14:26:12;;;;;;;7.40;6.55;;;;;;;;;;4976842;28;20049;-56
2023/07/16 14:28:37;;;;;;;7.55;6.93;;;;;;;;;;4976801;28;20125;-56
2023/07/16 14:31:03;;;;;;;7.45;6.85;;;;;;;;;;4976839;28;20042;-56
2023/07/16 14:33:29;;;;;;;8.98;7.15;;;;;;;;;;4976518;28;20031;-56